Time;durP1;ratioP1;P1;durP2;ratioP2;P2;SDS_P1;SDS_P2;PMS_P1;PMS_P2;Temp;Humidity;BMP_temperature;BMP_pressure;BME280_temperature;BME280_humidity;BME280_pressure;Samples;Min_cycle;Max_cycle;Signal;HPM_P1;HPM_P2
2022/08/27 00:00:47;;;;;;;;;2.67;2.67;;;;;21.79;50.18;101347.19;6251981;22;47025;-80
2022/08/27 00:03:13;;;;;;;;;2.00;2.00;;;;;21.76;50.27;101347.31;6277207;22;45760;-80
2022/08/27 00:05:39;;;;;;;;;3.00;2.00;;;;;21.76;50.03;101344.63;6279229;22;45213;-79
2022/08/27 00:08:06;;;;;;;;;5.00;3.33;;;;;21.73;50.17;101344.75;6279837;22;45310;-80
2022/08/27 00:10:32;;;;;;;;;2.67;2.67;;;;;21.74;50.41;101345.63;6251330;22;47053;-80
2022/08/27 00:12:59;;;;;;;;;3.67;3.67;;;;;21.74;50.40;101351.00;6251923;22;45094;-80
2022/08/27 00:15:24;;;;;;;;;4.00;2.00;;;;;21.71;50.30;101343.94;6279210;22;45382;-80
2022/08/27 00:17:50;;;;;;;;;2.00;2.00;;;;;21.69;50.13;101343.13;6250192;22;45783;-80
2022/08/27 00:20:19;;;;;;;;;2.00;2.00;;;;;21.68;50.16;101336.03;6279159;22;45406;-80
2022/08/27 00:22:45;;;;;;;;;2.00;2.00;;;;;21.66;50.57;101337.91;6252016;22;45201;-81
2022/08/27 00:25:11;;;;;;;;;3.00;2.67;;;;;21.69;50.28;101339.56;6279623;22;45117;-80
2022/08/27 00:27:37;;;;;;;;;2.00;2.00;;;;;21.67;50.00;101328.91;6279631;22;45229;-80
2022/08/27 00:30:07;;;;;;;;;2.33;2.33;;;;;21.65;50.16;101338.84;6279547;22;45455;-80
2022/08/27 00:32:33;;;;;;;;;3.00;2.00;;;;;21.66;50.42;101337.91;6279305;22;45193;-80
2022/08/27 00:34:58;;;;;;;;;2.00;2.00;;;;;21.63;50.71;101338.03;6279082;22;45184;-80
2022/08/27 00:37:24;;;;;;;;;2.00;2.00;;;;;21.65;50.47;101341.53;6251884;22;45351;-80
2022/08/27 00:39:49;;;;;;;;;3.00;3.00;;;;;21.63;50.38;101339.84;6279497;22;45835;-80
2022/08/27 00:42:15;;;;;;;;;2.00;2.00;;;;;21.59;50.60;101347.97;6252017;22;45701;-81
2022/08/27 00:44:40;;;;;;;;;2.33;2.33;;;;;21.56;51.03;101340.06;6279804;22;45173;-80
2022/08/27 00:47:12;;;;;;;;;3.67;3.00;;;;;21.56;50.80;101350.78;6251964;22;45173;-80
2022/08/27 00:49:47;;;;;;;;;2.00;2.00;;;;;21.56;50.84;101350.78;6278987;22;45367;-80
2022/08/27 00:52:28;;;;;;;;;2.33;1.67;;;;;21.56;50.95;101349.91;6279300;22;45484;-80
2022/08/27 00:55:01;;;;;;;;;4.67;3.33;;;;;21.53;51.36;101342.00;6251176;22;45429;-80
2022/08/27 00:57:26;;;;;;;;;4.33;3.33;;;;;21.53;50.79;101347.34;6251687;22;45557;-80
2022/08/27 00:59:53;;;;;;;;;2.00;2.00;;;;;21.50;50.90;101334.09;6251379;22;46448;-80
2022/08/27 01:02:18;;;;;;;;;3.00;3.00;;;;;21.50;51.06;101343.00;6251526;22;45469;-80
2022/08/27 01:04:58;;;;;;;;;4.00;3.00;;;;;21.49;51.06;101343.94;6251470;22;45346;-80
2022/08/27 01:07:26;;;;;;;;;3.00;3.00;;;;;21.47;51.00;101339.56;6251631;22;45726;-80
2022/08/27 01:09:54;;;;;;;;;2.00;2.00;;;;;21.45;51.19;101339.63;6251315;22;47569;-80
2022/08/27 01:12:20;;;;;;;;;2.00;2.00;;;;;21.43;50.99;101335.25;6251024;22;45367;-80
2022/08/27 01:14:46;;;;;;;;;2.67;2.00;;;;;21.42;51.27;101347.78;6251488;22;45311;-80
2022/08/27 01:17:13;;;;;;;;;4.00;3.00;;;;;21.40;51.29;101346.97;6251241;22;45442;-80
2022/08/27 01:19:51;;;;;;;;;2.67;2.33;;;;;21.40;51.28;101348.78;6251138;22;47191;-80
2022/08/27 01:22:19;;;;;;;;;2.00;2.00;;;;;21.40;51.22;101346.09;6250918;22;45148;-80
2022/08/27 01:24:49;;;;;;;;;2.00;2.00;;;;;21.38;51.46;101338.09;6251413;22;45337;-80
2022/08/27 01:27:19;;;;;;;;;3.33;3.33;;;;;21.39;51.71;101341.69;6278935;22;45204;-81
2022/08/27 01:29:45;;;;;;;;;4.00;3.33;;;;;21.37;51.33;101330.97;6252444;22;48353;-80
2022/08/27 01:32:20;;;;;;;;;2.33;2.33;;;;;21.38;51.23;101327.38;6252005;22;45201;-80
2022/08/27 01:34:47;;;;;;;;;3.33;3.00;;;;;21.36;51.65;101339.97;6251721;22;45359;-80
2022/08/27 01:37:16;;;;;;;;;4.67;3.00;;;;;21.34;51.67;101331.09;6252250;22;45299;-80
2022/08/27 01:39:43;;;;;;;;;2.67;2.67;;;;;21.34;51.64;101336.47;6252172;22;47478;-80
2022/08/27 01:42:14;;;;;;;;;2.00;2.00;;;;;21.34;51.73;101339.13;6280100;22;45191;-80
2022/08/27 01:44:50;;;;;;;;;3.33;2.67;;;;;21.33;51.76;101329.34;6280230;22;45169;-80
2022/08/27 01:47:18;;;;;;;;;2.00;2.00;;;;;21.33;51.44;101337.38;6252272;22;45181;-80
2022/08/27 01:49:44;;;;;;;;;3.00;3.00;;;;;21.32;51.58;101332.97;6251917;22;48671;-80
2022/08/27 01:52:11;;;;;;;;;3.67;3.67;;;;;21.28;51.69;101321.50;6280050;22;45353;-80
2022/08/27 01:54:37;;;;;;;;;2.00;2.00;;;;;21.30;51.83;101332.13;6252089;22;45216;-80
2022/08/27 01:57:19;;;;;;;;;0.00;0.00;;;;;21.28;51.95;101332.22;5077972;28;45403;-81
2022/08/27 01:59:45;;;;;;;;;1.67;1.33;;;;;21.23;52.16;101328.84;5057449;28;45251;-81
2022/08/27 02:02:14;;;;;;;;;2.33;2.33;;;;;21.25;51.88;101335.03;5055945;28;45244;-80
2022/08/27 02:04:40;;;;;;;;;3.67;3.00;;;;;21.26;51.99;101327.84;5055642;28;45387;-81
2022/08/27 02:07:05;;;;;;;;;3.67;3.00;;;;;21.24;51.98;101325.22;5057009;28;45478;-81
2022/08/27 02:09:32;;;;;;;;;3.33;2.00;;;;;21.22;51.93;101326.22;5056883;28;45341;-81
2022/08/27 02:11:59;;;;;;;;;1.67;1.67;;;;;21.25;51.92;101327.00;5057440;28;45450;-80
2022/08/27 02:14:25;;;;;;;;;1.00;1.00;;;;;21.25;52.12;101331.44;5055662;28;45279;-81
2022/08/27 02:16:50;;;;;;;;;4.00;2.33;;;;;21.23;51.96;101328.84;5056688;28;45413;-80
2022/08/27 02:19:16;;;;;;;;;2.67;2.67;;;;;21.23;52.04;101320.81;5055205;28;45231;-80
2022/08/27 02:21:41;;;;;;;;;1.00;1.00;;;;;21.20;52.02;101328.97;5055673;28;45259;-81
2022/08/27 02:24:07;;;;;;;;;4.33;3.00;;;;;21.23;52.30;101326.16;5056904;28;45141;-80
2022/08/27 02:26:32;;;;;;;;;2.00;2.00;;;;;21.26;51.93;101328.72;5056981;28;45237;-80
2022/08/27 02:28:58;;;;;;;;;2.00;2.00;;;;;21.24;51.87;101322.53;5056916;28;45294;-81
2022/08/27 02:31:24;;;;;;;;;3.33;2.67;;;;;21.28;52.17;101324.19;5052190;28;45185;-81
2022/08/27 02:33:49;;;;;;;;;5.67;4.00;;;;;21.31;52.08;101320.50;5053186;28;45249;-80
2022/08/27 02:36:15;;;;;;;;;3.00;3.00;;;;;21.35;51.96;101331.03;5056660;28;45505;-81
2022/08/27 02:38:41;;;;;;;;;3.33;3.33;;;;;21.37;52.27;101325.63;5056581;28;45374;-80
2022/08/27 02:41:06;;;;;;;;;1.67;1.67;;;;;21.36;51.80;101323.88;5057113;28;45448;-80
2022/08/27 02:43:32;;;;;;;;;2.67;2.67;;;;;21.39;52.07;101323.78;5056559;28;45596;-81
2022/08/27 02:45:58;;;;;;;;;5.33;2.33;;;;;21.40;51.83;101325.53;5056528;28;46359;-81
2022/08/27 02:48:24;;;;;;;;;3.00;2.00;;;;;21.38;51.74;101322.03;5056648;28;45804;-79
2022/08/27 02:50:50;;;;;;;;;3.00;3.00;;;;;21.43;51.89;101328.09;5055180;28;45429;-80
2022/08/27 02:53:17;;;;;;;;;1.67;1.67;;;;;21.43;51.81;101320.03;5056196;28;45270;-81
2022/08/27 02:55:43;;;;;;;;;2.67;2.67;;;;;21.43;51.76;101313.81;5055830;28;45235;-80
2022/08/27 02:58:08;;;;;;;;;4.33;4.00;;;;;21.43;51.46;101312.00;5056219;28;45490;-81
2022/08/27 03:00:34;;;;;;;;;2.00;2.00;;;;;21.42;51.86;101315.63;5072166;28;45266;-80
2022/08/27 03:03:00;;;;;;;;;2.00;2.00;;;;;21.36;51.66;101310.50;5056302;28;45473;-81
2022/08/27 03:05:25;;;;;;;;;3.00;3.00;;;;;21.35;51.75;101311.41;5056216;28;46203;-81
2022/08/27 03:07:50;;;;;;;;;3.33;3.33;;;;;21.35;51.86;101303.38;5045896;28;45414;-80
2022/08/27 03:10:19;;;;;;;;;5.00;4.00;;;;;21.33;52.01;101305.22;5042831;28;45388;-81
2022/08/27 03:12:45;;;;;;;;;3.00;3.00;;;;;21.31;51.70;101299.09;5041104;28;45412;-81
2022/08/27 03:15:15;;;;;;;;;2.33;2.33;;;;;21.28;51.97;101301.91;5037771;28;45286;-81
2022/08/27 03:20:26;;;;;;;;;3.00;3.00;;;;;21.18;51.82;101300.50;5042112;28;45457;-81
2022/08/27 03:22:51;;;;;;;;;3.67;2.67;;;;;21.14;51.92;101300.63;5057733;28;46052;-81
2022/08/27 03:25:17;;;;;;;;;2.67;2.67;;;;;21.15;51.97;101307.72;5041943;28;45434;-81
2022/08/27 03:27:43;;;;;;;;;2.00;2.00;;;;;21.14;52.31;101307.75;5040867;28;45409;-81
2022/08/27 03:30:13;;;;;;;;;2.33;2.33;;;;;21.10;51.86;101301.66;5042460;28;45429;-80
2022/08/27 03:32:39;;;;;;;;;2.00;2.00;;;;;21.09;51.84;101302.59;5041226;28;45635;-81
2022/08/27 03:35:05;;;;;;;;;2.67;2.67;;;;;21.05;52.52;101298.28;5041550;28;45210;-81
2022/08/27 03:37:30;;;;;;;;;4.33;3.33;;;;;20.99;52.17;101295.84;5058334;28;45338;-80
2022/08/27 03:39:58;;;;;;;;;2.33;2.33;;;;;20.93;52.44;101305.00;5041290;28;45415;-81
2022/08/27 03:42:24;;;;;;;;;3.00;3.00;;;;;20.88;52.56;101306.09;5041971;28;45537;-81
2022/08/27 03:45:01;;;;;;;;;2.00;2.00;;;;;20.83;52.16;101303.59;5058283;28;47886;-81
2022/08/27 03:47:26;;;;;;;;;4.00;3.33;;;;;20.78;52.52;101305.56;5040442;28;45744;-80
2022/08/27 03:49:52;;;;;;;;;3.00;3.00;;;;;20.77;52.77;101308.28;5041779;28;45784;-80
2022/08/27 03:52:18;;;;;;;;;2.00;2.00;;;;;20.72;52.54;101304.94;5040783;28;45297;-81
2022/08/27 03:54:43;;;;;;;;;5.00;3.00;;;;;20.70;52.52;101310.31;5039678;28;47960;-81
2022/08/27 03:57:09;;;;;;;;;3.00;3.00;;;;;20.68;52.53;101309.50;5057279;28;45245;-81
2022/08/27 03:59:34;;;;;;;;;2.67;2.67;;;;;20.61;52.61;101300.84;5040496;28;45581;-81
2022/08/27 04:02:00;;;;;;;;;4.33;4.33;;;;;20.56;52.83;101297.47;5041645;28;45426;-81
2022/08/27 04:04:26;;;;;;;;;3.00;2.75;;;;;20.55;53.33;101305.53;5039915;28;47335;-81
2022/08/27 04:06:52;;;;;;;;;3.00;3.00;;;;;20.53;53.05;101308.25;5041759;28;45319;-81
2022/08/27 04:09:17;;;;;;;;;2.00;2.00;;;;;20.51;53.15;101304.75;5041938;28;45264;-81
2022/08/27 04:11:43;;;;;;;;;3.00;2.00;;;;;20.51;53.34;101302.06;5041866;28;45449;-81
2022/08/27 04:14:08;;;;;;;;;3.00;3.00;;;;;20.46;53.25;101299.53;5039967;28;47591;-81
2022/08/27 04:16:34;;;;;;;;;2.00;2.00;;;;;20.48;53.36;101302.19;5041582;28;45362;-81
2022/08/27 04:19:01;;;;;;;;;2.00;2.00;;;;;20.43;53.71;101302.34;5039139;28;45581;-81
2022/08/27 04:21:28;;;;;;;;;3.00;3.00;;;;;20.45;53.74;101302.28;5039936;28;45897;-81
2022/08/27 04:23:55;;;;;;;;;2.33;2.33;;;;;20.45;53.56;101302.28;5055631;28;48028;-81
2022/08/27 04:26:21;;;;;;;;;2.00;2.00;;;;;20.44;53.40;101295.19;5041212;28;45342;-81
2022/08/27 04:28:47;;;;;;;;;2.67;2.67;;;;;20.43;53.85;101297.00;5041882;28;45385;-81
2022/08/27 04:31:13;;;;;;;;;1.67;1.67;;;;;20.45;53.66;101294.28;5040490;28;45552;-81
2022/08/27 04:33:39;;;;;;;;;3.33;2.67;;;;;20.49;53.39;101291.41;5042221;28;45371;-81
2022/08/27 04:36:08;;;;;;;;;3.00;3.00;;;;;20.53;53.72;101294.88;5040507;28;45205;-81
2022/08/27 04:38:34;;;;;;;;;4.33;3.00;;;;;20.52;53.56;101290.44;5041355;28;45297;-81
2022/08/27 04:41:21;;;;;;;;;5.00;3.67;;;;;20.48;53.94;101295.03;5040523;28;45567;-81
2022/08/27 04:43:54;;;;;;;;;2.00;2.00;;;;;20.44;53.66;101290.69;5040329;28;46825;-82
2022/08/27 04:46:21;;;;;;;;;5.00;3.00;;;;;20.37;53.91;101294.53;5039585;28;45572;-81
2022/08/27 04:48:47;;;;;;;;;3.00;3.00;;;;;20.35;54.13;101291.03;5036319;28;45288;-81
2022/08/27 04:51:12;;;;;;;;;4.00;4.00;;;;;20.31;53.98;101288.53;5034921;28;45445;-81
2022/08/27 04:53:38;;;;;;;;;2.67;2.67;;;;;20.27;53.91;101282.41;5040619;28;45363;-81
2022/08/27 04:56:04;;;;;;;;;4.00;4.00;;;;;20.21;54.43;101288.88;5039001;28;45418;-80
2022/08/27 04:58:29;;;;;;;;;6.33;4.00;;;;;20.18;54.05;101291.66;5032736;28;45441;-81
2022/08/27 05:01:00;;;;;;;;;4.00;4.00;;;;;20.14;54.32;101291.81;5047215;28;45489;-81
2022/08/27 05:03:27;;;;;;;;;3.00;3.00;;;;;20.12;54.13;101283.81;5039091;28;46784;-81
2022/08/27 05:05:59;;;;;;;;;4.33;3.33;;;;;20.09;54.55;101299.97;5040311;28;45501;-81
2022/08/27 05:08:24;;;;;;;;;3.67;3.67;;;;;20.07;54.62;101292.94;5041016;28;45369;-80
2022/08/27 05:10:50;;;;;;;;;4.33;2.67;;;;;20.08;54.70;101300.91;5038937;28;45484;-81
2022/08/27 05:13:18;;;;;;;;;6.00;4.33;;;;;20.03;54.62;101303.72;5040636;28;45417;-80
2022/08/27 05:15:44;;;;;;;;;1.33;1.33;;;;;20.04;54.50;101299.25;5039150;28;46155;-81
2022/08/27 05:18:12;;;;;;;;;4.00;4.00;;;;;20.05;54.78;101306.38;5039158;28;45272;-81
2022/08/27 05:20:47;;;;;;;;;4.00;4.00;;;;;20.03;54.97;101303.72;5040640;28;45267;-81
2022/08/27 05:23:14;;;;;;;;;3.00;2.33;;;;;20.01;55.08;101308.25;5039147;28;47528;-80
2022/08/27 05:25:41;;;;;;;;;4.00;2.67;;;;;19.96;54.75;101312.00;5040141;28;45461;-81
2022/08/27 05:28:09;;;;;;;;;4.33;4.00;;;;;19.98;54.82;101326.19;5039180;28;45472;-80
2022/08/27 05:30:40;;;;;;;;;3.67;3.67;;;;;19.95;54.69;101323.63;5039646;28;45520;-81
2022/08/27 05:33:07;;;;;;;;;5.33;3.00;;;;;19.89;54.69;101314.03;5039795;28;45561;-81
2022/08/27 05:35:39;;;;;;;;;2.67;2.67;;;;;19.90;55.26;101321.09;5040079;28;45434;-81
2022/08/27 05:38:05;;;;;;;;;6.33;5.00;;;;;19.88;54.76;101317.59;5040367;28;45304;-81
2022/08/27 05:40:30;;;;;;;;;3.00;3.00;;;;;19.86;54.70;101315.91;5040362;28;45524;-81
2022/08/27 05:42:55;;;;;;;;;5.00;4.33;;;;;19.79;54.84;101315.25;5040165;28;45455;-81
2022/08/27 05:45:21;;;;;;;;;5.67;5.00;;;;;19.77;55.02;101319.75;5039046;28;45466;-80
2022/08/27 05:47:46;;;;;;;;;3.33;2.67;;;;;19.74;55.31;101325.22;5038851;28;45371;-80
2022/08/27 05:50:12;;;;;;;;;4.33;4.00;;;;;19.67;55.13;101310.28;5034976;28;45359;-81
2022/08/27 05:52:37;;;;;;;;;5.00;5.00;;;;;19.65;55.43;101315.66;5032802;28;46138;-81
2022/08/27 05:55:03;;;;;;;;;4.00;4.00;;;;;19.69;55.64;101320.00;5039452;28;45418;-81
2022/08/27 05:57:28;;;;;;;;;5.67;4.67;;;;;19.71;55.54;101318.16;5055921;28;45279;-81
2022/08/27 06:02:38;;;;;;;;;5.33;5.00;;;;;19.68;55.57;101323.63;5039890;28;45446;-80
2022/08/27 06:05:04;;;;;;;;;5.00;5.00;;;;;19.70;55.26;101326.22;5038177;28;45461;-83
2022/08/27 06:07:30;;;;;;;;;2.67;1.67;;;;;19.63;55.59;101317.50;5039890;28;45263;-80
2022/08/27 06:09:57;;;;;;;;;6.67;5.67;;;;;19.62;55.40;101318.44;5040054;28;45212;-80
2022/08/27 06:12:23;;;;;;;;;6.33;6.00;;;;;19.66;55.38;101316.53;5039474;28;46308;-80
2022/08/27 06:14:49;;;;;;;;;6.00;5.00;;;;;19.65;55.31;101322.81;5038324;28;45292;-80
2022/08/27 06:17:15;;;;;;;;;6.00;5.00;;;;;19.66;55.45;101320.09;5036238;28;45246;-80
2022/08/27 06:19:41;;;;;;;;;7.67;7.00;;;;;19.64;55.88;101310.34;5038556;28;45756;-80
2022/08/27 06:22:07;;;;;;;;;7.67;5.00;;;;;19.71;55.42;101317.28;5039733;28;46361;-80
2022/08/27 06:24:32;;;;;;;;;2.67;2.67;;;;;19.70;55.41;101312.84;5039819;28;45444;-80
2022/08/27 06:26:58;;;;;;;;;4.67;4.33;;;;;19.70;55.52;101320.88;5039942;28;45315;-80
2022/08/27 06:29:24;;;;;;;;;6.00;6.00;;;;;19.76;55.59;101328.72;5038856;28;45444;-80
2022/08/27 06:31:51;;;;;;;;;5.67;5.67;;;;;19.77;55.62;101328.66;5039138;28;45235;-81
2022/08/27 06:34:17;;;;;;;;;4.00;4.00;;;;;19.76;55.80;101329.56;5039851;28;45243;-80
2022/08/27 06:36:42;;;;;;;;;5.67;4.67;;;;;19.82;55.53;101333.84;5038059;28;45302;-80
2022/08/27 06:39:12;;;;;;;;;5.00;4.00;;;;;19.78;55.62;101329.50;5038192;28;45197;-81
2022/08/27 06:41:38;;;;;;;;;6.33;5.33;;;;;19.82;55.37;101337.38;5039220;28;45523;-81
2022/08/27 06:44:04;;;;;;;;;6.67;6.67;;;;;19.78;55.30;101332.19;5042443;28;45457;-81
2022/08/27 06:46:29;;;;;;;;;7.33;7.33;;;;;19.79;55.35;101333.94;5042135;28;45372;-81
2022/08/27 06:48:59;;;;;;;;;6.33;6.33;;;;;19.84;55.19;101342.69;5041061;28;45430;-81
2022/08/27 06:51:28;;;;;;;;;6.00;6.00;;;;;19.84;55.54;101337.34;5041009;28;45884;-81
2022/08/27 06:53:56;;;;;;;;;7.33;7.00;;;;;19.90;55.58;101344.28;5040455;28;45544;-81
2022/08/27 06:56:22;;;;;;;;;7.33;6.00;;;;;19.92;55.70;101345.13;5043810;28;45289;-82
2022/08/27 06:58:52;;;;;;;;;7.33;6.33;;;;;19.97;55.47;101348.53;5041066;28;45285;-81
2022/08/27 07:01:23;;;;;;;;;6.00;6.00;;;;;20.04;55.38;101355.38;5042032;28;46186;-81
2022/08/27 07:03:49;;;;;;;;;7.33;6.33;;;;;20.07;55.66;101354.41;5040326;28;45253;-81
2022/08/27 07:06:15;;;;;;;;;9.00;7.00;;;;;20.09;55.00;101350.75;5042251;28;45295;-81
2022/08/27 07:08:42;;;;;;;;;6.33;5.33;;;;;20.13;55.36;101357.78;5041830;28;45413;-81
2022/08/27 07:11:10;;;;;;;;;6.67;6.67;;;;;20.19;55.12;101362.91;5041836;28;45456;-81
2022/08/27 07:13:36;;;;;;;;;8.67;8.67;;;;;20.21;54.90;101354.84;5040685;28;45213;-82
2022/08/27 07:16:07;;;;;;;;;9.00;7.00;;;;;20.29;55.38;101366.16;5041488;28;45448;-81
2022/08/27 07:18:33;;;;;;;;;9.33;8.00;;;;;20.32;55.32;101363.38;5056916;28;45528;-81
2022/08/27 07:20:59;;;;;;;;;7.33;6.33;;;;;20.40;55.11;101363.97;5041612;28;45458;-81
2022/08/27 07:23:24;;;;;;;;;7.67;7.67;;;;;20.44;55.19;101367.41;5040391;28;45832;-81
2022/08/27 07:25:50;;;;;;;;;9.00;7.67;;;;;20.49;55.22;101360.97;5021017;28;45384;-82
2022/08/27 07:28:15;;;;;;;;;7.00;6.00;;;;;20.58;54.54;101359.81;5032935;28;45325;-82
2022/08/27 07:30:41;;;;;;;;;6.33;6.00;;;;;20.66;54.53;101354.16;5041074;28;46012;-82
2022/08/27 07:33:07;;;;;;;;;7.33;7.33;;;;;20.72;54.43;101355.78;5039834;28;45263;-82
2022/08/27 07:35:32;;;;;;;;;5.00;4.00;;;;;20.73;54.34;101353.03;5041518;28;45311;-82
2022/08/27 07:37:57;;;;;;;;;6.00;6.00;;;;;20.78;54.34;101353.72;5041607;28;45332;-82
2022/08/27 07:40:23;;;;;;;;;5.33;5.00;;;;;20.85;54.28;101360.63;5056659;28;47045;-82
2022/08/27 07:45:33;;;;;;;;;8.50;7.50;;;;;20.94;53.69;101364.75;5041383;28;45218;-82
2022/08/27 07:47:58;;;;;;;;;7.33;7.33;;;;;20.97;53.83;101358.41;5040587;28;45542;-82
2022/08/27 07:50:24;;;;;;;;;6.67;6.33;;;;;21.00;53.81;101359.16;5039628;28;47011;-82
2022/08/27 07:52:50;;;;;;;;;7.00;6.00;;;;;21.09;53.74;101369.53;5056452;28;45277;-82
2022/08/27 07:55:16;;;;;;;;;8.00;8.00;;;;;21.15;53.62;101365.75;5039411;28;45441;-82
2022/08/27 07:57:43;;;;;;;;;9.67;8.67;;;;;21.18;53.43;101371.00;5039645;28;45686;-82
2022/08/27 08:00:10;;;;;;;;;9.33;7.33;;;;;21.18;53.04;101368.31;5040970;28;45498;-81
2022/08/27 08:02:36;;;;;;;;;10.00;9.00;;;;;21.21;53.35;101359.28;5040812;28;45483;-82
2022/08/27 08:05:02;;;;;;;;;10.00;9.67;;;;;21.25;53.23;101366.25;5039624;28;45231;-82
2022/08/27 08:07:28;;;;;;;;;7.33;7.33;;;;;21.29;53.34;101368.78;5039600;28;45977;-82
2022/08/27 08:09:54;;;;;;;;;7.33;6.67;;;;;21.40;53.02;101375.56;5056428;28;48088;-82
2022/08/27 08:12:19;;;;;;;;;9.00;8.33;;;;;21.53;53.33;101372.34;5039354;28;45378;-82
2022/08/27 08:14:45;;;;;;;;;7.67;7.67;;;;;21.63;53.11;101369.31;5041132;28;45220;-82
2022/08/27 08:17:12;;;;;;;;;7.00;6.00;;;;;21.75;52.77;101368.81;5055807;28;45513;-83
2022/08/27 08:19:39;;;;;;;;;5.33;5.00;;;;;21.85;52.33;101372.00;5038895;28;47785;-82
2022/08/27 08:22:04;;;;;;;;;6.00;4.33;;;;;21.98;52.35;101370.56;5055843;28;45397;-82
2022/08/27 08:24:29;;;;;;;;;7.33;6.33;;;;;22.10;51.93;101363.81;5056241;28;45351;-82
2022/08/27 08:26:55;;;;;;;;;4.33;4.00;;;;;22.24;51.66;101373.06;5055764;28;45427;-82
2022/08/27 08:29:20;;;;;;;;;5.33;5.00;;;;;22.31;51.42;101376.34;5038913;28;45385;-82
2022/08/27 08:31:46;;;;;;;;;6.33;6.33;;;;;22.37;51.04;101373.41;5040206;28;45367;-82
2022/08/27 08:34:11;;;;;;;;;6.00;6.00;;;;;22.45;50.72;101381.09;5039179;28;45314;-82
2022/08/27 08:36:37;;;;;;;;;6.67;6.67;;;;;22.48;50.62;101377.41;5040025;28;45187;-82
2022/08/27 08:39:02;;;;;;;;;7.00;6.67;;;;;22.53;50.38;101370.03;5040638;28;45617;-82
2022/08/27 08:41:41;;;;;;;;;5.00;4.00;;;;;22.60;50.55;101366.16;5040154;28;45226;-82
2022/08/27 08:44:19;;;;;;;;;4.67;4.67;;;;;22.71;50.41;101376.44;5039134;28;45345;-82
2022/08/27 08:46:55;;;;;;;;;5.33;5.33;;;;;22.77;50.30;101370.78;5051816;28;45472;-82
2022/08/27 08:49:41;;;;;;;;;7.33;5.67;;;;;22.83;49.78;101367.84;5030963;28;47645;-82
2022/08/27 08:52:28;;;;;;;;;5.00;5.00;;;;;22.89;49.24;101372.91;5040275;28;45264;-82
2022/08/27 08:55:24;;;;;;;;;6.33;5.00;;;;;22.94;49.03;101370.03;5038347;28;45264;-82
2022/08/27 08:58:15;;;;;;;;;4.67;3.67;;;;;23.00;48.98;101367.09;5041933;28;45220;-82
2022/08/27 09:00:44;;;;;;;;;5.00;5.00;;;;;23.06;48.68;101365.00;5041485;28;45406;-82
2022/08/27 09:03:13;;;;;;;;;5.00;4.00;;;;;23.15;47.95;101370.88;5041107;28;45260;-81
2022/08/27 09:05:46;;;;;;;;;4.33;4.33;;;;;23.17;48.00;101364.50;5039555;28;45397;-81
2022/08/27 09:08:29;;;;;;;;;4.67;4.67;;;;;23.21;47.44;101376.84;5039939;28;45433;-82
2022/08/27 09:11:13;;;;;;;;;6.67;5.67;;;;;23.21;47.42;101367.94;5041433;28;45227;-82
2022/08/27 09:13:50;;;;;;;;;5.00;5.00;;;;;23.22;47.68;101375.91;5041222;28;45216;-82
2022/08/27 09:16:16;;;;;;;;;5.00;4.00;;;;;23.25;46.88;101373.06;5039211;28;45497;-82
2022/08/27 09:18:43;;;;;;;;;4.33;4.00;;;;;23.30;46.31;101383.59;5040881;28;45405;-82
2022/08/27 09:21:40;;;;;;;;;3.00;3.00;;;;;23.33;45.86;101376.28;5040043;28;47357;-81
2022/08/27 09:24:22;;;;;;;;;3.67;3.67;;;;;23.30;45.08;101371.03;5039849;28;45263;-82
2022/08/27 09:26:48;;;;;;;;;7.33;6.00;;;;;23.35;45.55;101376.19;5040554;28;45477;-82
2022/08/27 09:29:17;;;;;;;;;4.33;4.00;;;;;23.40;45.83;101370.63;5038759;28;45566;-82
2022/08/27 09:32:05;;;;;;;;;6.67;5.67;;;;;23.42;46.16;101363.38;5040126;28;45671;-81
2022/08/27 09:34:37;;;;;;;;;5.00;5.00;;;;;23.47;45.94;101377.44;5039925;28;45422;-81
2022/08/27 09:37:15;;;;;;;;;4.00;4.00;;;;;23.48;45.11;101369.31;5038567;28;45310;-82
2022/08/27 09:40:13;;;;;;;;;4.33;4.33;;;;;23.55;44.58;101376.13;5038674;28;45403;-82
2022/08/27 09:42:45;;;;;;;;;4.00;4.00;;;;;23.61;45.15;101371.41;5040423;28;46128;-81
2022/08/27 09:45:26;;;;;;;;;5.00;5.00;;;;;23.72;45.21;101374.47;5040281;28;45488;-83
2022/08/27 09:48:03;;;;;;;;;5.00;4.00;;;;;23.86;44.30;101373.81;5035855;28;45281;-81
2022/08/27 09:50:37;;;;;;;;;4.67;4.67;;;;;23.98;43.74;101373.22;5038707;28;45859;-82
2022/08/27 09:53:03;;;;;;;;;5.00;5.00;;;;;24.13;44.21;101374.25;5038110;28;48463;-82
2022/08/27 09:55:46;;;;;;;;;5.00;4.33;;;;;24.28;43.70;101378.00;5038050;28;45196;-82
2022/08/27 09:58:20;;;;;;;;;3.67;3.67;;;;;24.39;43.93;101372.91;5039948;28;45276;-82
2022/08/27 10:00:46;;;;;;;;;5.00;5.00;;;;;24.49;43.41;101367.97;5038684;28;45938;-82
2022/08/27 10:03:12;;;;;;;;;4.67;4.67;;;;;24.58;43.31;101378.25;5038104;28;46101;-82
2022/08/27 10:05:49;;;;;;;;;6.00;4.67;;;;;24.69;42.62;101375.00;5038649;28;45376;-81
2022/08/27 10:08:33;;;;;;;;;4.00;4.00;;;;;24.78;43.01;101367.31;5039247;28;45207;-82
2022/08/27 10:11:03;;;;;;;;;4.00;4.00;;;;;24.82;41.65;101368.88;5038218;28;46061;-80
2022/08/27 10:13:43;;;;;;;;;5.67;5.00;;;;;24.80;41.60;101376.16;5039387;28;45375;-82
2022/08/27 10:16:25;;;;;;;;;3.33;3.33;;;;;24.79;41.07;101369.03;5038281;28;45209;-82
2022/08/27 10:19:28;;;;;;;;;5.00;4.67;;;;;24.86;41.46;101375.84;5040896;28;45332;-81
2022/08/27 10:22:02;;;;;;;;;3.00;3.00;;;;;24.87;40.42;101374.03;5043015;28;45658;-82
2022/08/27 10:24:28;;;;;;;;;2.00;2.00;;;;;24.85;40.04;101374.09;5040923;28;47157;-82
2022/08/27 10:26:56;;;;;;;;;2.33;2.33;;;;;24.91;40.50;101370.19;5042184;28;45377;-82
2022/08/27 10:29:51;;;;;;;;;5.67;4.00;;;;;25.02;39.88;101372.31;5041631;28;45504;-83
2022/08/27 10:32:28;;;;;;;;;4.33;2.00;;;;;25.12;40.42;101370.00;5040776;28;45209;-81
2022/08/27 10:35:08;;;;;;;;;4.00;4.00;;;;;25.14;39.17;101368.09;5040840;28;46838;-81
2022/08/27 10:37:39;;;;;;;;;4.00;4.00;;;;;25.15;38.81;101373.41;5043385;28;45459;-81
2022/08/27 10:40:29;;;;;;;;;4.67;3.33;;;;;25.18;38.47;101367.00;5042170;28;45272;-81
2022/08/27 10:43:12;;;;;;;;;4.00;3.67;;;;;25.22;38.11;101372.13;5042240;28;45702;-82
2022/08/27 10:46:04;;;;;;;;;6.00;3.00;;;;;25.27;38.34;101361.09;5040356;28;48273;-82
2022/08/27 10:48:47;;;;;;;;;3.00;3.00;;;;;25.33;37.67;101354.50;5039974;28;45655;-82
2022/08/27 10:51:23;;;;;;;;;5.00;4.33;;;;;25.36;38.26;101354.31;5041850;28;45238;-82
2022/08/27 10:54:00;;;;;;;;;3.33;3.33;;;;;25.42;37.76;101349.47;5040320;28;45831;-82
2022/08/27 10:56:37;;;;;;;;;6.00;4.67;;;;;25.51;38.07;101342.69;5041452;28;46385;-82
2022/08/27 10:59:17;;;;;;;;;5.33;4.00;;;;;25.61;38.36;101351.09;5040287;28;45706;-82
2022/08/27 11:01:56;;;;;;;;;5.00;5.00;;;;;25.69;37.82;101344.34;5041856;28;45240;-81
2022/08/27 11:04:27;;;;;;;;;4.00;3.00;;;;;25.80;38.10;101345.53;5041554;28;45446;-82
2022/08/27 11:07:05;;;;;;;;;7.00;5.00;;;;;25.91;37.63;101343.13;5040313;28;47878;-81
2022/08/27 11:09:36;;;;;;;;;4.67;4.67;;;;;26.07;37.24;101337.69;5040432;28;45577;-82
2022/08/27 11:12:08;;;;;;;;;5.00;3.33;;;;;26.13;37.43;101332.78;5040732;28;45403;-81
2022/08/27 11:14:55;;;;;;;;;4.33;4.00;;;;;26.21;37.28;101334.16;5040087;28;45429;-82
2022/08/27 11:17:36;;;;;;;;;3.00;3.00;;;;;26.27;36.90;101329.25;5039970;28;47058;-82
2022/08/27 11:20:15;;;;;;;;;4.00;4.00;;;;;26.34;36.91;101330.63;5040210;28;45276;-81
2022/08/27 11:22:52;;;;;;;;;4.33;4.33;;;;;26.43;36.18;101339.13;5040116;28;45323;-82
2022/08/27 11:25:34;;;;;;;;;6.33;5.00;;;;;26.42;36.14;101330.16;5039821;28;45821;-82
2022/08/27 11:28:05;;;;;;;;;7.33;4.67;;;;;26.47;36.48;101324.50;5039705;28;47626;-82
2022/08/27 11:30:44;;;;;;;;;3.33;3.33;;;;;26.55;35.75;101316.81;5041307;28;45638;-82
2022/08/27 11:33:35;;;;;;;;;4.33;4.33;;;;;26.65;35.96;101315.28;5040036;28;45463;-83
2022/08/27 11:36:17;;;;;;;;;4.33;3.00;;;;;26.73;35.82;101315.69;5041480;28;45434;-83
2022/08/27 11:38:57;;;;;;;;;4.67;3.67;;;;;26.82;35.64;101317.78;5040229;28;46987;-81
2022/08/27 11:41:45;;;;;;;;;3.00;3.00;;;;;26.86;35.60;101313.06;5039742;28;45442;-83
2022/08/27 11:44:12;;;;;;;;;4.67;4.67;;;;;26.98;35.50;101306.88;5041391;28;45265;-83